KGVL/GVL METAR and TAF weather

Enter ICAO airport designator
Station Type Date Time Source
KGVL METAR 2022/01/27 23:53 UTC NOAA

KGVL 272353Z AUTO 12003KT 10SM CLR 06/M06 A3023 RMK AO2 SLP240 T00611056 10100 20061 58001


Station Type Date Time Source
KGVL Decoded METAR 2022/01/27 23:53 UTC NOAA

GILMER MEMORIAL AIRPORT, GA, United States (KGVL) 34-16N 83-50W 386M
Jan 27, 2022 - 06:53 PM EST / 2022.01.27 2353 UTC
Wind: from the ESE (120 degrees) at 3 MPH (3 KT):0
Visibility: 10 mile(s):0
Sky conditions: clear
Temperature: 43.0 F (6.1 C)
Dew Point: 21.9 F (-5.6 C)
Relative Humidity: 42%
Pressure (altimeter): 30.23 in. Hg (1023 hPa)
Pressure tendency: 0.00 inches (0.1 hPa) lower than three hours ago
ob: KGVL 272353Z AUTO 12003KT 10SM CLR 06/M06 A3023 RMK AO2 SLP240 T00611056 10100 20061 58001
cycle: 0

Station Type Date Time Source
KGVL TAF UTC NOAA

Error!

Example: see airport list